createdAt,value
2022-08-05T00:02:20.400Z,21.20
2022-08-05T00:04:57.528Z,20.82
2022-08-05T00:08:00.110Z,20.57
2022-08-05T00:10:38.368Z,21.08
2022-08-05T00:13:20.424Z,20.86
2022-08-05T00:16:35.620Z,20.80
2022-08-05T00:19:16.693Z,20.75
2022-08-05T00:22:02.941Z,20.81
2022-08-05T00:24:42.156Z,20.73
2022-08-05T00:27:35.600Z,20.69
2022-08-05T00:30:11.534Z,21.06
2022-08-05T00:32:50.363Z,21.04
2022-08-05T00:35:21.935Z,20.83
2022-08-05T00:38:06.498Z,20.92
2022-08-05T00:41:00.118Z,20.57
2022-08-05T00:43:47.143Z,20.45
2022-08-05T00:46:20.518Z,20.63
2022-08-05T00:49:19.951Z,20.70
2022-08-05T00:51:57.303Z,20.56
2022-08-05T00:54:30.206Z,20.81
2022-08-05T00:57:01.802Z,21.11
2022-08-05T00:59:44.673Z,21.31
2022-08-05T01:02:19.225Z,20.81
2022-08-05T01:04:51.055Z,20.84
2022-08-05T01:07:32.748Z,20.55
2022-08-05T01:10:09.136Z,20.53
2022-08-05T01:13:05.028Z,20.53
2022-08-05T01:15:50.539Z,20.35
2022-08-05T01:18:28.849Z,19.87
2022-08-05T01:21:22.659Z,20.17
2022-08-05T01:24:34.948Z,20.05
2022-08-05T01:27:55.496Z,19.98
2022-08-05T01:30:36.248Z,19.74
2022-08-05T01:33:10.909Z,19.64
2022-08-05T01:35:51.919Z,19.76
2022-08-05T01:38:29.249Z,19.73
2022-08-05T01:41:11.699Z,19.74
2022-08-05T01:43:59.066Z,19.49
2022-08-05T01:46:46.530Z,19.45
2022-08-05T01:49:25.265Z,19.69
2022-08-05T01:52:17.360Z,19.30
2022-08-05T01:55:01.035Z,19.09
2022-08-05T01:58:12.771Z,19.54
2022-08-05T02:00:38.309Z,19.66
2022-08-05T02:03:28.972Z,20.04
2022-08-05T02:06:24.228Z,19.95
2022-08-05T02:08:59.248Z,19.60
2022-08-05T02:11:47.918Z,19.65
2022-08-05T02:14:48.105Z,19.67
2022-08-05T02:18:30.646Z,19.59
2022-08-05T02:21:00.145Z,19.16
2022-08-05T02:23:36.422Z,19.36
2022-08-05T02:26:12.069Z,19.44
2022-08-05T02:28:51.723Z,19.17
2022-08-05T02:31:26.935Z,19.20
2022-08-05T02:34:17.070Z,19.33
2022-08-05T02:36:58.060Z,19.22
2022-08-05T02:39:29.356Z,19.10
2022-08-05T02:42:03.563Z,19.35
2022-08-05T02:44:46.833Z,19.03
2022-08-05T02:47:25.007Z,18.56
2022-08-05T02:50:24.044Z,18.74
2022-08-05T02:52:58.585Z,18.82
2022-08-05T02:55:51.903Z,18.90
2022-08-05T02:58:37.703Z,19.07
2022-08-05T03:01:31.146Z,19.26
2022-08-05T03:04:14.374Z,19.19
2022-08-05T03:06:54.540Z,19.16
2022-08-05T03:09:37.626Z,19.25
2022-08-05T03:12:22.045Z,19.42
2022-08-05T03:14:51.287Z,18.83
2022-08-05T03:17:22.084Z,18.86
2022-08-05T03:19:55.472Z,18.92
2022-08-05T03:22:35.784Z,18.32
2022-08-05T03:26:03.962Z,18.53
2022-08-05T03:28:03.548Z,18.76
2022-08-05T03:30:41.078Z,18.87
2022-08-05T03:33:15.710Z,18.77
2022-08-05T03:35:50.523Z,18.26
2022-08-05T03:38:33.279Z,18.70
2022-08-05T03:41:38.551Z,18.62
2022-08-05T03:44:19.816Z,18.33
2022-08-05T03:46:58.199Z,18.33
2022-08-05T03:49:52.106Z,18.18
2022-08-05T03:54:59.042Z,18.26
2022-08-05T03:56:10.875Z,18.40
2022-08-05T03:58:41.464Z,18.35
2022-08-05T04:01:13.401Z,18.53
2022-08-05T04:04:09.795Z,18.39
2022-08-05T04:06:56.181Z,18.53
2022-08-05T04:09:31.309Z,18.77
2022-08-05T04:12:24.391Z,18.80
2022-08-05T04:15:02.150Z,18.96
2022-08-05T04:17:57.154Z,19.04
2022-08-05T04:20:42.480Z,18.88
2022-08-05T04:23:16.126Z,18.89
2022-08-05T04:26:00.711Z,18.83
2022-08-05T04:28:32.419Z,18.82
2022-08-05T04:31:11.623Z,18.67
2022-08-05T04:34:17.734Z,18.71
2022-08-05T04:36:45.601Z,18.74
2022-08-05T04:39:22.734Z,18.64
2022-08-05T04:41:58.125Z,18.82
2022-08-05T04:44:40.442Z,19.00
2022-08-05T04:47:20.445Z,19.14
2022-08-05T04:50:01.370Z,19.34
2022-08-05T04:52:43.130Z,19.43
2022-08-05T04:55:16.774Z,19.60
2022-08-05T04:57:55.485Z,19.67
2022-08-05T05:00:34.399Z,19.82
2022-08-05T05:03:20.385Z,19.79
2022-08-05T05:06:39.867Z,19.91
2022-08-05T05:08:43.702Z,19.86
2022-08-05T05:11:22.861Z,19.88
2022-08-05T05:14:19.465Z,19.94
2022-08-05T05:17:07.477Z,19.85
2022-08-05T05:19:47.325Z,19.83
2022-08-05T05:22:23.635Z,20.15
2022-08-05T05:25:16.586Z,20.19
2022-08-05T05:28:00.217Z,20.33
2022-08-05T05:30:37.893Z,20.51
2022-08-05T05:33:17.286Z,20.64
2022-08-05T05:35:54.935Z,20.79
2022-08-05T05:38:29.308Z,20.82
2022-08-05T05:41:07.636Z,20.77
2022-08-05T05:43:56.845Z,20.94
2022-08-05T05:46:33.392Z,21.05
2022-08-05T05:49:13.021Z,21.35
2022-08-05T05:51:54.867Z,21.48
2022-08-05T05:54:49.652Z,21.57
2022-08-05T05:57:19.041Z,21.63
2022-08-05T05:59:53.875Z,21.76
2022-08-05T06:02:37.539Z,21.95
2022-08-05T06:05:16.405Z,21.93
2022-08-05T06:08:01.272Z,22.05
2022-08-05T06:10:44.239Z,22.16
2022-08-05T06:13:29.065Z,22.29
2022-08-05T06:16:29.109Z,22.51
2022-08-05T06:19:35.426Z,22.51
2022-08-05T06:22:16.513Z,22.60
2022-08-05T06:24:54.105Z,22.52
2022-08-05T06:28:11.172Z,22.57
2022-08-05T06:30:23.612Z,22.76
2022-08-05T06:33:09.996Z,23.05
2022-08-05T06:36:07.137Z,23.25
2022-08-05T06:38:48.876Z,23.24
2022-08-05T06:41:19.029Z,23.43
2022-08-05T06:44:00.332Z,23.55
2022-08-05T06:46:39.012Z,23.89
2022-08-05T06:49:16.391Z,23.76
2022-08-05T06:52:04.101Z,23.80
2022-08-05T06:54:34.301Z,24.10
2022-08-05T06:57:57.378Z,24.21
2022-08-05T07:00:13.836Z,24.35
2022-08-05T07:03:09.616Z,24.19
2022-08-05T07:05:46.450Z,24.33
2022-08-05T07:08:22.885Z,24.32
2022-08-05T07:10:57.674Z,24.56
2022-08-05T07:13:57.611Z,24.59
2022-08-05T07:18:08.177Z,24.54
2022-08-05T07:22:39.823Z,25.12
2022-08-05T07:25:54.190Z,25.38
2022-08-05T07:28:23.568Z,25.61
2022-08-05T07:30:57.088Z,25.93
2022-08-05T07:33:38.940Z,26.08
2022-08-05T07:36:20.353Z,26.08
2022-08-05T07:39:08.071Z,25.87
2022-08-05T07:42:13.148Z,25.85
2022-08-05T07:44:54.340Z,26.18
2022-08-05T07:47:27.681Z,26.25
2022-08-05T07:50:17.659Z,26.54
2022-08-05T07:52:56.570Z,26.52
2022-08-05T07:56:05.379Z,26.65
2022-08-05T07:58:57.468Z,26.42
2022-08-05T08:01:41.663Z,26.69
2022-08-05T08:04:37.959Z,26.81
2022-08-05T08:07:14.985Z,26.90
2022-08-05T08:09:46.624Z,26.92
2022-08-05T08:12:35.013Z,27.09
2022-08-05T08:15:37.413Z,27.30
2022-08-05T08:18:20.770Z,27.35
2022-08-05T08:21:03.536Z,27.46
2022-08-05T08:24:02.013Z,27.49
2022-08-05T08:26:29.985Z,27.64
2022-08-05T08:30:03.156Z,27.91
2022-08-05T08:31:55.688Z,28.04
2022-08-05T08:34:30.147Z,27.98
2022-08-05T08:37:10.892Z,28.00
2022-08-05T08:39:49.484Z,28.04
2022-08-05T08:42:34.085Z,28.30
2022-08-05T08:45:19.288Z,28.48
2022-08-05T08:48:42.706Z,28.97
2022-08-05T08:52:01.971Z,29.18
2022-08-05T08:54:17.332Z,29.16
2022-08-05T08:56:50.196Z,29.12
2022-08-05T08:59:21.256Z,29.20
2022-08-05T09:02:00.966Z,29.17
2022-08-05T09:04:58.103Z,29.22
2022-08-05T09:07:39.494Z,29.22
2022-08-05T09:10:31.576Z,29.50
2022-08-05T09:13:05.574Z,29.57
2022-08-05T09:15:53.705Z,29.74
2022-08-05T09:18:27.962Z,29.71
2022-08-05T09:21:11.608Z,29.97
2022-08-05T09:24:22.116Z,30.18
2022-08-05T09:26:59.130Z,30.24
2022-08-05T09:29:54.616Z,30.34
2022-08-05T09:32:51.679Z,30.54
2022-08-05T09:35:35.939Z,30.84
2022-08-05T09:38:12.937Z,31.07
2022-08-05T09:40:52.473Z,31.03
2022-08-05T09:43:43.203Z,31.17
2022-08-05T09:46:39.569Z,31.16
2022-08-05T09:49:40.473Z,31.11
2022-08-05T09:52:45.711Z,31.46
2022-08-05T09:55:57.947Z,31.79
2022-08-05T09:58:18.974Z,31.83
2022-08-05T10:01:00.773Z,31.75
2022-08-05T10:03:56.999Z,32.13
2022-08-05T10:06:28.326Z,32.09
2022-08-05T10:09:05.781Z,32.01
2022-08-05T10:11:39.189Z,32.29
2022-08-05T10:14:38.153Z,32.70
2022-08-05T10:17:37.757Z,32.77
2022-08-05T10:20:18.223Z,32.90
2022-08-05T10:22:53.160Z,32.92
2022-08-05T10:25:27.153Z,33.05
2022-08-05T10:28:17.374Z,33.14
2022-08-05T10:32:48.565Z,33.11
2022-08-05T10:33:52.323Z,33.27
2022-08-05T10:36:26.002Z,33.57
2022-08-05T10:40:03.661Z,33.85
2022-08-05T10:42:33.958Z,33.76
2022-08-05T10:45:23.395Z,33.87
2022-08-05T10:48:31.995Z,33.74
2022-08-05T10:51:21.879Z,33.75
2022-08-05T10:54:22.951Z,34.38
2022-08-05T10:57:05.849Z,34.60
2022-08-05T11:00:02.766Z,34.51
2022-08-05T11:02:43.651Z,34.45
2022-08-05T11:05:25.251Z,34.42
2022-08-05T11:08:36.779Z,34.77
2022-08-05T11:11:44.906Z,34.61
2022-08-05T11:15:11.689Z,34.93
2022-08-05T11:17:59.485Z,34.79
2022-08-05T11:20:54.019Z,34.76
2022-08-05T11:24:02.775Z,34.69
2022-08-05T11:26:35.384Z,35.43
2022-08-05T11:29:14.210Z,35.49
2022-08-05T11:31:56.447Z,35.46
2022-08-05T11:34:51.322Z,35.21
2022-08-05T11:38:37.004Z,35.99
2022-08-05T11:42:01.634Z,35.97
2022-08-05T11:44:53.991Z,36.08
2022-08-05T11:47:49.542Z,36.27
2022-08-05T11:50:35.762Z,36.14
2022-08-05T11:53:09.867Z,36.14
2022-08-05T11:58:53.386Z,36.07
2022-08-05T12:04:23.088Z,36.11
2022-08-05T12:07:03.024Z,36.34
2022-08-05T12:09:53.648Z,36.45
2022-08-05T12:12:34.156Z,36.75
2022-08-05T12:15:15.078Z,36.45
2022-08-05T12:18:10.024Z,36.57
2022-08-05T12:20:44.204Z,36.27
2022-08-05T12:23:29.920Z,36.87
2022-08-05T12:28:53.761Z,37.74
2022-08-05T12:31:33.539Z,37.71
2022-08-05T12:34:25.987Z,37.47
2022-08-05T12:37:01.224Z,37.56
2022-08-05T12:39:38.890Z,37.51
2022-08-05T12:42:20.550Z,36.55
2022-08-05T12:45:02.310Z,36.53
2022-08-05T12:47:34.292Z,37.43
2022-08-05T12:50:13.217Z,38.14
2022-08-05T12:52:45.447Z,37.91
2022-08-05T12:55:32.632Z,37.37
2022-08-05T12:58:50.461Z,37.48
2022-08-05T13:02:01.452Z,37.87
2022-08-05T13:04:07.605Z,38.59
2022-08-05T13:06:52.719Z,37.85
2022-08-05T13:09:32.102Z,37.40
2022-08-05T13:12:13.191Z,37.82
2022-08-05T13:15:05.058Z,37.60
2022-08-05T13:17:43.284Z,38.48
2022-08-05T13:20:26.128Z,39.03
2022-08-05T13:23:09.670Z,39.26
2022-08-05T13:25:52.649Z,39.62
2022-08-05T13:28:33.457Z,38.88
2022-08-05T13:31:19.240Z,38.22
2022-08-05T13:34:23.399Z,38.37
2022-08-05T13:36:54.676Z,38.49
2022-08-05T13:40:15.191Z,39.06
2022-08-05T13:42:21.538Z,39.88
2022-08-05T13:45:00.016Z,39.74
2022-08-05T13:47:35.754Z,40.23
2022-08-05T13:50:26.516Z,39.46
2022-08-05T13:53:15.753Z,39.60
2022-08-05T13:56:00.266Z,39.61
2022-08-05T13:58:33.194Z,41.22
2022-08-05T14:01:04.312Z,42.95
2022-08-05T14:03:46.871Z,44.22
2022-08-05T14:06:26.783Z,46.82
2022-08-05T14:08:59.517Z,46.14
2022-08-05T14:12:04.530Z,46.61
2022-08-05T14:17:16.861Z,44.00
2022-08-05T14:20:05.184Z,45.53
2022-08-05T14:22:39.774Z,45.69
2022-08-05T14:25:22.596Z,44.40
2022-08-05T14:27:58.547Z,45.02
2022-08-05T14:30:39.128Z,44.34
2022-08-05T14:33:22.845Z,45.07
2022-08-05T14:35:57.879Z,44.98
2022-08-05T14:38:36.220Z,44.72
2022-08-05T14:41:12.451Z,44.53
2022-08-05T14:44:00.259Z,44.84
2022-08-05T14:46:38.322Z,45.31
2022-08-05T14:49:17.510Z,45.39
2022-08-05T14:51:56.508Z,44.39
2022-08-05T14:54:33.702Z,44.77
2022-08-05T14:57:05.139Z,44.99
2022-08-05T14:59:39.532Z,44.00
2022-08-05T15:02:24.220Z,43.96
2022-08-05T15:04:55.777Z,43.32
2022-08-05T15:08:07.699Z,42.76
2022-08-05T15:10:28.657Z,43.64
2022-08-05T15:13:04.806Z,42.90
2022-08-05T15:15:55.354Z,42.85
2022-08-05T15:18:27.456Z,41.99
2022-08-05T15:20:59.226Z,42.15
2022-08-05T15:23:42.533Z,42.21
2022-08-05T15:26:32.228Z,43.35
2022-08-05T15:29:02.518Z,43.30
2022-08-05T15:31:39.796Z,43.31
2022-08-05T15:34:32.950Z,42.36
2022-08-05T15:37:14.724Z,43.35
2022-08-05T15:41:00.356Z,43.67
2022-08-05T15:42:56.780Z,42.88
2022-08-05T15:45:45.738Z,42.38
2022-08-05T15:48:21.063Z,43.23
2022-08-05T15:50:56.571Z,42.35
2022-08-05T15:53:37.845Z,42.39
2022-08-05T15:56:16.273Z,41.97
2022-08-05T15:58:55.219Z,42.15
2022-08-05T16:04:26.666Z,41.42
2022-08-05T16:07:06.016Z,41.86
2022-08-05T16:09:44.306Z,41.96
2022-08-05T16:12:17.669Z,39.78
2022-08-05T16:14:54.352Z,39.15
2022-08-05T16:17:31.926Z,38.19
2022-08-05T16:20:12.235Z,38.21
2022-08-05T16:22:58.476Z,38.05
2022-08-05T16:25:40.021Z,37.94
2022-08-05T16:28:15.622Z,37.70
2022-08-05T16:30:50.391Z,37.58
2022-08-05T16:33:21.186Z,37.28
2022-08-05T16:36:01.485Z,37.32
2022-08-05T16:38:42.298Z,37.30
2022-08-05T16:42:14.828Z,37.32
2022-08-05T16:44:25.689Z,37.11
2022-08-05T16:47:02.538Z,36.66
2022-08-05T16:49:33.736Z,36.26
2022-08-05T16:52:10.459Z,36.07
2022-08-05T16:54:48.738Z,35.87
2022-08-05T16:57:53.371Z,35.78
2022-08-05T17:00:34.425Z,35.52
2022-08-05T17:03:20.031Z,35.39
2022-08-05T17:05:59.529Z,35.26
2022-08-05T17:08:52.891Z,35.08
2022-08-05T17:11:48.718Z,34.88
2022-08-05T17:14:22.196Z,34.64
2022-08-05T17:17:15.067Z,34.54
2022-08-05T17:19:53.829Z,34.40
2022-08-05T17:22:26.303Z,34.33
2022-08-05T17:25:09.600Z,34.29
2022-08-05T17:27:59.490Z,34.20
2022-08-05T17:30:33.632Z,34.09
2022-08-05T17:33:16.591Z,33.99
2022-08-05T17:36:07.927Z,33.93
2022-08-05T17:38:54.506Z,33.72
2022-08-05T17:42:28.553Z,33.22
2022-08-05T17:44:32.548Z,33.10
2022-08-05T17:47:09.386Z,33.04
2022-08-05T17:49:59.875Z,32.96
2022-08-05T17:52:52.528Z,33.12
2022-08-05T17:55:27.321Z,33.10
2022-08-05T17:58:09.675Z,33.15
2022-08-05T18:00:47.201Z,33.04
2022-08-05T18:03:48.408Z,32.87
2022-08-05T18:06:15.591Z,32.71
2022-08-05T18:08:53.648Z,32.67
2022-08-05T18:14:13.555Z,32.58
2022-08-05T18:16:52.132Z,32.59
2022-08-05T18:19:30.795Z,32.45
2022-08-05T18:22:17.951Z,32.14
2022-08-05T18:24:54.305Z,32.08
2022-08-05T18:27:28.883Z,32.08
2022-08-05T18:30:09.649Z,32.00
2022-08-05T18:32:53.624Z,31.80
2022-08-05T18:36:00.584Z,31.77
2022-08-05T18:38:32.494Z,31.71
2022-08-05T18:41:58.475Z,31.33
2022-08-05T18:44:06.586Z,30.92
2022-08-05T18:46:46.808Z,30.95
2022-08-05T18:49:57.236Z,30.59
2022-08-05T18:52:51.225Z,30.64
2022-08-05T18:55:22.423Z,30.32
2022-08-05T18:58:03.361Z,29.80
2022-08-05T19:00:49.263Z,29.47
2022-08-05T19:03:55.672Z,29.33
2022-08-05T19:06:37.126Z,29.22
2022-08-05T19:09:18.322Z,29.06
2022-08-05T19:12:00.153Z,28.93
2022-08-05T19:14:52.207Z,28.89
2022-08-05T19:17:58.242Z,28.84
2022-08-05T19:20:28.671Z,28.67
2022-08-05T19:23:07.859Z,28.62
2022-08-05T19:25:43.511Z,28.68
2022-08-05T19:28:18.450Z,28.54
2022-08-05T19:30:49.605Z,28.64
2022-08-05T19:36:06.904Z,28.72
2022-08-05T19:38:41.475Z,28.60
2022-08-05T19:41:22.195Z,28.28
2022-08-05T19:44:14.387Z,28.22
2022-08-05T19:46:51.304Z,28.23
2022-08-05T19:49:32.100Z,27.92
2022-08-05T19:52:31.078Z,27.46
2022-08-05T19:55:07.310Z,27.32
2022-08-05T19:58:19.440Z,27.19
2022-08-05T20:01:02.012Z,27.07
2022-08-05T20:03:44.617Z,27.12
2022-08-05T20:06:28.886Z,26.98
2022-08-05T20:09:04.932Z,27.39
2022-08-05T20:11:48.154Z,27.16
2022-08-05T20:14:27.039Z,27.04
2022-08-05T20:17:06.919Z,26.88
2022-08-05T20:19:42.674Z,26.87
2022-08-05T20:22:24.535Z,26.58
2022-08-05T20:25:06.482Z,26.27
2022-08-05T20:27:42.110Z,26.77
2022-08-05T20:30:18.367Z,27.04
2022-08-05T20:32:52.586Z,27.06
2022-08-05T20:35:27.608Z,26.38
2022-08-05T20:38:09.379Z,26.23
2022-08-05T20:40:55.372Z,26.81
2022-08-05T20:43:57.985Z,26.89
2022-08-05T20:46:18.804Z,26.71
2022-08-05T20:48:54.767Z,26.72
2022-08-05T20:51:26.615Z,26.18
2022-08-05T20:54:03.663Z,26.17
2022-08-05T20:56:42.427Z,25.91
2022-08-05T20:59:19.070Z,26.09
2022-08-05T21:01:59.392Z,25.96
2022-08-05T21:04:35.914Z,25.76
2022-08-05T21:07:15.925Z,26.10
2022-08-05T21:09:53.451Z,25.98
2022-08-05T21:12:27.281Z,25.98
2022-08-05T21:15:07.865Z,25.78
2022-08-05T21:18:03.429Z,25.64
2022-08-05T21:20:34.241Z,25.61
2022-08-05T21:23:16.141Z,25.55
2022-08-05T21:25:45.760Z,25.69
2022-08-05T21:28:30.860Z,25.58
2022-08-05T21:31:07.654Z,25.63
2022-08-05T21:33:40.068Z,25.66
2022-08-05T21:36:29.938Z,25.46
2022-08-05T21:39:08.508Z,25.48
2022-08-05T21:41:39.596Z,25.65
2022-08-05T21:44:12.828Z,25.43
2022-08-05T21:46:48.940Z,25.47
2022-08-05T21:49:58.908Z,25.50
2022-08-05T21:52:28.552Z,25.61
2022-08-05T21:55:13.519Z,25.72
2022-08-05T21:57:44.743Z,25.63
2022-08-05T22:00:17.848Z,25.26
2022-08-05T22:02:58.224Z,25.49
2022-08-05T22:05:48.473Z,25.28
2022-08-05T22:08:26.410Z,25.47
2022-08-05T22:11:35.008Z,25.48
2022-08-05T22:14:33.461Z,25.54
2022-08-05T22:17:03.083Z,25.37
2022-08-05T22:19:57.534Z,25.26
2022-08-05T22:22:26.825Z,25.24
2022-08-05T22:25:20.897Z,25.41
2022-08-05T22:28:11.975Z,25.17
2022-08-05T22:31:05.877Z,25.26
2022-08-05T22:33:57.849Z,25.29
2022-08-05T22:36:37.973Z,25.27
2022-08-05T22:39:16.138Z,25.34
2022-08-05T22:42:11.834Z,25.22
2022-08-05T22:45:01.681Z,24.89
2022-08-05T22:47:34.981Z,25.18
2022-08-05T22:50:20.045Z,25.19
2022-08-05T22:52:58.502Z,25.23
2022-08-05T22:55:37.148Z,25.13
2022-08-05T22:58:28.591Z,24.58
2022-08-05T23:01:00.749Z,24.40
2022-08-05T23:03:59.002Z,23.84
2022-08-05T23:06:26.383Z,24.14
2022-08-05T23:09:24.634Z,24.37
2022-08-05T23:12:02.227Z,24.27
2022-08-05T23:14:38.051Z,24.44
2022-08-05T23:17:32.625Z,24.54
2022-08-05T23:20:17.500Z,24.18
2022-08-05T23:22:58.784Z,24.02
2022-08-05T23:25:52.618Z,24.03
2022-08-05T23:28:28.699Z,23.88
2022-08-05T23:31:07.100Z,23.78
2022-08-05T23:34:04.060Z,23.52
2022-08-05T23:36:45.064Z,23.79
2022-08-05T23:39:44.525Z,23.94
2022-08-05T23:42:29.449Z,23.79
2022-08-05T23:45:14.355Z,23.78
2022-08-05T23:47:48.395Z,23.95
2022-08-05T23:53:24.031Z,24.01
2022-08-05T23:56:00.177Z,24.07
2022-08-05T23:58:32.676Z,23.97
